createdAt,value
2018-11-12T00:00:50.742Z,0.00
2018-11-12T00:01:51.326Z,0.00
2018-11-12T00:02:50.635Z,0.00
2018-11-12T00:03:52.279Z,0.00
2018-11-12T00:04:52.736Z,0.00
2018-11-12T00:05:52.562Z,0.00
2018-11-12T00:06:54.367Z,0.00
2018-11-12T00:07:54.798Z,0.00
2018-11-12T00:08:55.380Z,0.00
2018-11-12T00:09:55.151Z,0.00
2018-11-12T00:10:55.498Z,0.00
2018-11-12T00:11:57.181Z,0.00
2018-11-12T00:12:56.948Z,0.00
2018-11-12T00:13:58.396Z,0.00
2018-11-12T00:14:58.888Z,0.00
2018-11-12T00:15:59.371Z,0.00
2018-11-12T00:16:58.944Z,0.00
2018-11-12T00:18:00.482Z,0.00
2018-11-12T00:19:01.104Z,0.00
2018-11-12T00:20:00.679Z,0.00
2018-11-12T00:21:01.105Z,0.00
2018-11-12T00:22:01.631Z,0.00
2018-11-12T00:23:02.250Z,0.00
2018-11-12T00:24:03.762Z,0.00
2018-11-12T00:25:57.829Z,0.00
2018-11-12T00:26:58.052Z,0.00
2018-11-12T00:27:58.450Z,0.00
2018-11-12T00:28:59.882Z,0.00
2018-11-12T00:30:00.736Z,0.00
2018-11-12T00:31:01.291Z,0.00
2018-11-12T00:32:01.783Z,0.00
2018-11-12T00:33:02.109Z,0.00
2018-11-12T00:34:02.536Z,0.00
2018-11-12T00:35:05.580Z,0.00
2018-11-12T00:36:02.467Z,0.00
2018-11-12T00:37:02.828Z,0.00
2018-11-12T00:38:07.120Z,0.00
2018-11-12T00:39:04.095Z,0.00
2018-11-12T00:40:05.531Z,0.00
2018-11-12T00:41:06.360Z,0.00
2018-11-12T00:42:06.531Z,0.00
2018-11-12T00:43:06.624Z,0.00
2018-11-12T00:44:07.671Z,0.00
2018-11-12T00:45:07.242Z,0.00
2018-11-12T00:46:09.141Z,0.00
2018-11-12T00:47:09.666Z,0.00
2018-11-12T00:48:11.665Z,0.00
2018-11-12T00:49:09.368Z,0.00
2018-11-12T00:50:10.973Z,0.00
2018-11-12T00:51:11.732Z,0.00
2018-11-12T00:52:12.316Z,0.00
2018-11-12T00:53:11.955Z,0.00
2018-11-12T00:54:13.067Z,0.00
2018-11-12T00:55:12.673Z,0.00
2018-11-12T00:56:14.154Z,0.00
2018-11-12T00:57:14.670Z,0.00
2018-11-12T00:58:32.995Z,0.00
2018-11-12T00:59:15.133Z,0.00
2018-11-12T01:00:16.640Z,0.00
2018-11-12T01:01:17.256Z,0.00
2018-11-12T01:02:17.695Z,0.00
2018-11-12T01:03:18.202Z,0.00
2018-11-12T01:04:17.710Z,0.00
2018-11-12T01:05:18.142Z,0.00
2018-11-12T01:06:18.600Z,0.00
2018-11-12T01:07:20.439Z,0.00
2018-11-12T01:08:20.766Z,0.00
2018-11-12T01:09:21.247Z,0.00
2018-11-12T01:10:20.919Z,0.00
2018-11-12T01:11:21.449Z,0.00
2018-11-12T01:12:22.225Z,0.00
2018-11-12T01:13:22.626Z,0.00
2018-11-12T01:14:22.909Z,0.00
2018-11-12T01:15:24.492Z,0.00
2018-11-12T01:16:23.679Z,0.00
2018-11-12T01:17:25.353Z,0.00
2018-11-12T01:18:25.872Z,0.00
2018-11-12T01:19:26.566Z,0.00
2018-11-12T01:20:27.248Z,0.00
2018-11-12T01:21:27.720Z,0.00
2018-11-12T01:22:28.504Z,0.00
2018-11-12T01:23:28.906Z,0.00
2018-11-12T01:24:29.187Z,0.00
2018-11-12T01:25:29.556Z,0.00
2018-11-12T01:25:38.143Z,0.00
2018-11-12T01:26:38.796Z,0.00
2018-11-12T01:27:39.242Z,0.00
2018-11-12T01:28:39.606Z,0.00
2018-11-12T01:29:40.086Z,0.00
2018-11-12T01:30:40.668Z,0.00
2018-11-12T01:31:41.204Z,0.00
2018-11-12T01:32:41.739Z,0.00
2018-11-12T01:33:42.119Z,0.00
2018-11-12T01:34:42.638Z,0.00
2018-11-12T01:35:44.067Z,0.00
2018-11-12T01:36:43.495Z,0.00
2018-11-12T01:37:43.971Z,0.00
2018-11-12T01:38:44.350Z,0.00
2018-11-12T01:39:44.927Z,0.00
2018-11-12T01:40:45.699Z,0.00
2018-11-12T01:41:45.965Z,0.00
2018-11-12T01:42:46.468Z,0.00
2018-11-12T01:43:47.088Z,0.00
2018-11-12T01:44:46.520Z,0.00
2018-11-12T01:45:48.039Z,0.00
2018-11-12T01:46:48.519Z,0.00
2018-11-12T01:47:48.921Z,0.00
2018-11-12T01:48:49.301Z,0.00
2018-11-12T01:49:50.041Z,0.00
2018-11-12T01:50:49.577Z,0.00
2018-11-12T01:51:51.319Z,0.00
2018-11-12T01:52:51.846Z,0.00
2018-11-12T01:53:52.386Z,0.00
2018-11-12T01:54:52.876Z,0.00
2018-11-12T01:55:52.440Z,0.00
2018-11-12T01:56:54.225Z,0.00
2018-11-12T01:57:54.654Z,0.00
2018-11-12T01:58:55.329Z,0.00
2018-11-12T01:59:55.861Z,0.00
2018-11-12T02:00:55.484Z,0.00
2018-11-12T02:01:57.281Z,0.00
2018-11-12T02:02:56.614Z,0.00
2018-11-12T02:03:57.131Z,0.00
2018-11-12T02:04:58.799Z,0.00
2018-11-12T02:05:57.967Z,0.00
2018-11-12T02:06:59.566Z,0.00
2018-11-12T02:08:00.017Z,0.00
2018-11-12T02:09:00.441Z,0.00
2018-11-12T02:09:59.792Z,0.00
2018-11-12T02:11:01.394Z,0.00
2018-11-12T02:12:02.029Z,0.00
2018-11-12T02:13:01.836Z,0.00
2018-11-12T02:14:03.202Z,0.00
2018-11-12T02:15:04.022Z,0.00
2018-11-12T02:15:12.078Z,0.00
2018-11-12T02:16:13.619Z,0.00
2018-11-12T02:17:13.677Z,0.00
2018-11-12T02:18:14.424Z,0.00
2018-11-12T02:19:14.874Z,0.00
2018-11-12T02:20:15.317Z,0.00
2018-11-12T02:21:15.858Z,0.00
2018-11-12T02:22:16.630Z,0.00
2018-11-12T02:23:16.984Z,0.00
2018-11-12T02:24:17.336Z,0.00
2018-11-12T02:25:18.125Z,0.00
2018-11-12T02:26:19.064Z,0.00
2018-11-12T02:27:19.383Z,0.00
2018-11-12T02:28:19.945Z,0.00
2018-11-12T02:29:20.279Z,0.00
2018-11-12T02:30:22.085Z,0.00
2018-11-12T02:31:21.752Z,0.00
2018-11-12T02:32:22.100Z,0.00
2018-11-12T02:33:22.681Z,0.00
2018-11-12T02:34:22.028Z,0.00
2018-11-12T02:35:23.692Z,0.00
2018-11-12T02:36:24.059Z,0.00
2018-11-12T02:37:24.482Z,0.00
2018-11-12T02:38:25.103Z,0.00
2018-11-12T02:39:26.073Z,0.00
2018-11-12T02:40:26.822Z,0.00
2018-11-12T02:41:27.236Z,0.00
2018-11-12T02:42:28.001Z,0.00
2018-11-12T02:43:28.764Z,0.00
2018-11-12T02:44:28.251Z,0.00
2018-11-12T02:45:29.849Z,0.00
2018-11-12T02:46:30.547Z,0.00
2018-11-12T02:47:30.911Z,0.00
2018-11-12T02:48:31.314Z,0.00
2018-11-12T02:49:31.667Z,0.00
2018-11-12T02:50:32.078Z,0.00
2018-11-12T02:51:32.790Z,0.00
2018-11-12T02:52:33.205Z,0.00
2018-11-12T02:53:33.518Z,0.00
2018-11-12T02:54:34.124Z,0.00
2018-11-12T02:55:34.477Z,0.00
2018-11-12T02:56:34.948Z,0.00
2018-11-12T02:57:35.838Z,0.00
2018-11-12T02:58:35.318Z,0.00
2018-11-12T02:59:36.818Z,0.00
2018-11-12T03:00:37.230Z,0.00
2018-11-12T03:01:37.627Z,0.00
2018-11-12T03:02:30.369Z,0.00
2018-11-12T03:03:31.720Z,0.00
2018-11-12T03:04:32.630Z,0.00
2018-11-12T03:05:31.956Z,0.00
2018-11-12T03:06:33.382Z,0.00
2018-11-12T03:07:33.984Z,0.00
2018-11-12T03:08:33.245Z,0.00
2018-11-12T03:09:34.561Z,0.00
2018-11-12T03:10:34.967Z,0.00
2018-11-12T03:11:35.386Z,0.00
2018-11-12T03:12:35.867Z,0.00
2018-11-12T03:13:36.235Z,0.00
2018-11-12T03:14:36.660Z,0.00
2018-11-12T03:15:37.167Z,0.00
2018-11-12T03:16:38.478Z,0.00
2018-11-12T03:17:37.893Z,0.00
2018-11-12T03:18:38.472Z,0.00
2018-11-12T03:19:39.143Z,0.00
2018-11-12T03:20:39.685Z,0.00
2018-11-12T03:21:40.137Z,0.00
2018-11-12T03:22:40.562Z,0.00
2018-11-12T03:23:39.967Z,0.00
2018-11-12T03:24:41.321Z,0.00
2018-11-12T03:25:41.718Z,0.00
2018-11-12T03:26:41.710Z,0.00
2018-11-12T03:27:42.315Z,0.00
2018-11-12T03:28:41.849Z,0.00
2018-11-12T03:29:43.279Z,0.00
2018-11-12T03:30:44.223Z,0.00
2018-11-12T03:31:43.843Z,0.00
2018-11-12T03:32:45.575Z,0.00
2018-11-12T03:33:45.964Z,0.00
2018-11-12T03:34:46.328Z,0.00
2018-11-12T03:35:46.795Z,0.00
2018-11-12T03:36:47.185Z,0.00
2018-11-12T03:37:47.579Z,0.00
2018-11-12T03:38:48.329Z,0.00
2018-11-12T03:39:48.793Z,0.00
2018-11-12T03:40:48.243Z,0.00
2018-11-12T03:41:49.623Z,0.00
2018-11-12T03:42:50.173Z,0.00
2018-11-12T03:43:49.730Z,0.00
2018-11-12T03:44:51.267Z,0.00
2018-11-12T03:45:51.561Z,0.00
2018-11-12T03:46:52.038Z,0.00
2018-11-12T03:47:52.556Z,0.00
2018-11-12T03:48:53.004Z,0.00
2018-11-12T03:49:53.494Z,0.00
2018-11-12T03:50:54.096Z,0.00
2018-11-12T03:51:14.216Z,0.00
2018-11-12T03:52:15.600Z,0.00
2018-11-12T03:53:16.148Z,0.00
2018-11-12T03:54:16.621Z,0.00
2018-11-12T03:55:17.088Z,0.00
2018-11-12T03:56:16.430Z,0.00
2018-11-12T03:57:17.915Z,0.00
2018-11-12T03:58:17.686Z,0.00
2018-11-12T03:59:18.148Z,0.00
2018-11-12T04:00:19.964Z,0.00
2018-11-12T04:01:19.411Z,0.00
2018-11-12T04:02:21.053Z,0.00
2018-11-12T04:03:21.696Z,0.00
2018-11-12T04:04:22.259Z,0.00
2018-11-12T04:05:22.683Z,0.00
2018-11-12T04:06:23.254Z,0.00
2018-11-12T04:07:23.672Z,0.00
2018-11-12T04:08:24.618Z,0.00
2018-11-12T04:09:25.147Z,0.00
2018-11-12T04:10:24.827Z,0.00
2018-11-12T04:11:26.313Z,0.00
2018-11-12T04:12:26.968Z,0.00
2018-11-12T04:13:27.517Z,0.00
2018-11-12T04:14:27.943Z,0.00
2018-11-12T04:15:28.662Z,0.00
2018-11-12T04:16:29.376Z,0.00
2018-11-12T04:17:30.046Z,0.00
2018-11-12T04:18:30.862Z,0.00
2018-11-12T04:19:31.420Z,0.00
2018-11-12T04:20:31.860Z,0.00
2018-11-12T04:21:32.408Z,0.00
2018-11-12T04:22:32.823Z,0.00
2018-11-12T04:23:31.960Z,0.00
2018-11-12T04:24:33.415Z,0.00
2018-11-12T04:25:33.894Z,0.00
2018-11-12T04:26:34.330Z,0.00
2018-11-12T04:27:34.879Z,0.00
2018-11-12T04:28:35.342Z,0.00
2018-11-12T04:29:35.817Z,0.00
2018-11-12T04:30:36.404Z,0.00
2018-11-12T04:31:36.854Z,0.00
2018-11-12T04:32:37.267Z,0.00
2018-11-12T04:33:37.686Z,0.00
2018-11-12T04:34:38.205Z,0.00
2018-11-12T04:35:38.660Z,0.00
2018-11-12T04:36:39.293Z,0.00
2018-11-12T04:37:39.720Z,0.00
2018-11-12T04:39:02.166Z,0.00
2018-11-12T04:40:02.735Z,0.00
2018-11-12T04:41:02.108Z,0.00
2018-11-12T04:42:03.854Z,0.00
2018-11-12T04:43:04.382Z,0.00
2018-11-12T04:44:04.818Z,0.00
2018-11-12T04:45:05.243Z,0.00
2018-11-12T04:46:05.552Z,0.00
2018-11-12T04:47:05.882Z,0.00
2018-11-12T04:48:06.382Z,0.00
2018-11-12T04:49:06.856Z,0.00
2018-11-12T04:50:07.207Z,0.00
2018-11-12T04:51:07.602Z,0.00
2018-11-12T04:52:07.999Z,0.00
2018-11-12T04:53:08.375Z,0.00
2018-11-12T04:54:09.039Z,0.00
2018-11-12T04:55:09.118Z,0.00
2018-11-12T04:56:08.619Z,0.00
2018-11-12T04:57:10.143Z,0.00
2018-11-12T04:58:10.558Z,0.00
2018-11-12T04:59:10.968Z,0.00
2018-11-12T05:00:11.412Z,0.00
2018-11-12T05:01:11.859Z,0.00
2018-11-12T05:02:12.230Z,0.00
2018-11-12T05:03:12.652Z,0.00
2018-11-12T05:04:13.182Z,0.00
2018-11-12T05:05:13.612Z,0.00
2018-11-12T05:06:14.052Z,0.00
2018-11-12T05:07:15.060Z,0.00
2018-11-12T05:08:15.430Z,0.00
2018-11-12T05:09:16.055Z,0.00
2018-11-12T05:10:16.953Z,0.00
2018-11-12T05:11:17.441Z,0.00
2018-11-12T05:12:18.164Z,0.00
2018-11-12T05:13:18.562Z,0.00
2018-11-12T05:14:19.243Z,0.00
2018-11-12T05:15:19.620Z,0.00
2018-11-12T05:16:20.366Z,0.00
2018-11-12T05:17:20.803Z,0.00
2018-11-12T05:18:21.394Z,0.00
2018-11-12T05:19:22.045Z,0.00
2018-11-12T05:20:22.489Z,0.00
2018-11-12T05:21:22.632Z,0.00
2018-11-12T05:22:23.118Z,0.00
2018-11-12T05:23:23.612Z,0.00
2018-11-12T05:24:24.578Z,0.00
2018-11-12T05:25:25.370Z,0.00
2018-11-12T05:25:36.724Z,0.00
2018-11-12T05:26:38.343Z,0.00
2018-11-12T05:27:38.856Z,0.00
2018-11-12T05:28:39.263Z,0.00
2018-11-12T05:29:39.665Z,0.00
2018-11-12T05:30:40.313Z,0.00
2018-11-12T05:31:40.837Z,0.00
2018-11-12T05:32:41.627Z,0.00
2018-11-12T05:33:41.417Z,0.00
2018-11-12T05:34:42.043Z,0.00
2018-11-12T05:35:42.600Z,0.00
2018-11-12T05:36:44.385Z,0.00
2018-11-12T05:37:44.882Z,0.00
2018-11-12T05:38:44.285Z,0.05
2018-11-12T05:39:46.291Z,0.05
2018-11-12T05:40:46.103Z,0.05
2018-11-12T05:41:47.560Z,0.05
2018-11-12T05:42:48.034Z,0.05
2018-11-12T05:43:48.427Z,0.05
2018-11-12T05:44:48.943Z,0.05
2018-11-12T05:45:48.528Z,0.05
2018-11-12T05:46:50.204Z,0.09
2018-11-12T05:47:49.868Z,0.09
2018-11-12T05:48:51.476Z,0.14
2018-11-12T05:49:51.153Z,0.14
2018-11-12T05:50:55.234Z,0.18
2018-11-12T05:51:54.799Z,0.18
2018-11-12T05:52:52.436Z,0.18
2018-11-12T05:53:54.097Z,0.27
2018-11-12T05:54:54.878Z,0.27
2018-11-12T05:55:55.589Z,0.41
2018-11-12T05:56:56.192Z,0.41
2018-11-12T05:57:57.206Z,0.50
2018-11-12T05:58:56.811Z,0.58
2018-11-12T05:59:57.267Z,0.72
2018-11-12T06:00:59.008Z,0.86
2018-11-12T06:01:59.936Z,0.99
2018-11-12T06:03:00.678Z,1.12
2018-11-12T06:04:00.452Z,1.30
2018-11-12T06:05:02.227Z,1.49
2018-11-12T06:06:01.344Z,1.71
2018-11-12T06:07:02.405Z,2.07
2018-11-12T06:08:04.626Z,2.52
2018-11-12T06:09:02.762Z,3.19
2018-11-12T06:10:05.508Z,3.91
2018-11-12T06:11:03.906Z,4.95
2018-11-12T06:12:05.406Z,6.21
2018-11-12T06:13:05.885Z,7.65
2018-11-12T06:14:06.295Z,9.31
2018-11-12T06:15:06.803Z,11.07
2018-11-12T06:16:06.520Z,12.96
2018-11-12T06:17:08.396Z,15.21
2018-11-12T06:18:09.162Z,18.09
2018-11-12T06:19:08.568Z,21.33
2018-11-12T06:20:10.068Z,24.84
2018-11-12T06:21:10.619Z,28.62
2018-11-12T06:22:11.010Z,33.48
2018-11-12T06:23:14.413Z,38.70
2018-11-12T06:24:11.838Z,44.46
2018-11-12T06:25:13.286Z,50.76
2018-11-12T06:26:12.925Z,58.32
2018-11-12T06:26:21.844Z,59.40
2018-11-12T06:27:23.277Z,68.04
2018-11-12T06:28:23.603Z,77.40
2018-11-12T06:29:24.118Z,88.20
2018-11-12T06:30:23.584Z,99.36
2018-11-12T06:31:24.106Z,108.72
2018-11-12T06:32:24.903Z,118.08
2018-11-12T06:33:26.433Z,126.00
2018-11-12T06:34:26.763Z,134.64
2018-11-12T06:35:27.261Z,144.72
2018-11-12T06:36:28.055Z,156.96
2018-11-12T06:37:28.517Z,166.32
2018-11-12T06:38:27.927Z,177.12
2018-11-12T06:39:29.904Z,190.08
2018-11-12T06:40:29.644Z,208.80
2018-11-12T06:41:31.141Z,228.96
2018-11-12T06:42:31.651Z,254.88
2018-11-12T06:43:31.044Z,288.00
2018-11-12T06:44:32.643Z,322.56
2018-11-12T06:45:32.059Z,342.72
2018-11-12T06:46:33.644Z,354.24
2018-11-12T06:47:34.200Z,368.64
2018-11-12T06:48:34.576Z,388.80
2018-11-12T06:49:34.922Z,432.00
2018-11-12T06:50:35.497Z,498.24
2018-11-12T06:51:36.161Z,558.72
2018-11-12T06:52:36.493Z,570.24
2018-11-12T06:53:36.116Z,567.36
2018-11-12T06:54:36.380Z,573.12
2018-11-12T06:55:37.965Z,578.88
2018-11-12T06:56:38.610Z,599.04
2018-11-12T06:57:39.053Z,622.08
2018-11-12T06:58:39.796Z,642.24
2018-11-12T06:59:40.135Z,668.16
2018-11-12T07:00:40.790Z,731.52
2018-11-12T07:01:41.389Z,794.88
2018-11-12T07:02:41.707Z,840.96
2018-11-12T07:03:42.699Z,881.28
2018-11-12T07:04:43.095Z,869.76
2018-11-12T07:05:43.717Z,887.04
2018-11-12T07:06:44.400Z,990.72
2018-11-12T07:07:45.182Z,1117.44
2018-11-12T07:08:45.822Z,1169.28
2018-11-12T07:09:46.466Z,1238.40
2018-11-12T07:10:47.027Z,1244.16
2018-11-12T07:11:47.577Z,1232.64
2018-11-12T07:12:48.003Z,1238.40
2018-11-12T07:13:48.556Z,1353.60
2018-11-12T07:14:49.033Z,1612.80
2018-11-12T07:15:49.450Z,2016.00
2018-11-12T07:16:49.839Z,2338.56
2018-11-12T07:17:50.244Z,2511.36
2018-11-12T07:17:58.854Z,2534.40
2018-11-12T07:18:59.400Z,2626.56
2018-11-12T07:19:59.046Z,2741.76
2018-11-12T07:21:00.816Z,2810.88
2018-11-12T07:22:00.158Z,2891.52
2018-11-12T07:23:01.577Z,2995.20
2018-11-12T07:24:02.049Z,2937.60
2018-11-12T07:25:02.497Z,2937.60
2018-11-12T07:26:01.941Z,2914.56
2018-11-12T07:27:03.408Z,2880.00
2018-11-12T07:28:03.780Z,2868.48
2018-11-12T07:29:04.329Z,2810.88
2018-11-12T07:30:04.866Z,2972.16
2018-11-12T07:31:05.430Z,3156.48
2018-11-12T07:32:05.091Z,3179.52
2018-11-12T07:33:06.540Z,2661.12
2018-11-12T07:34:05.986Z,2154.24
2018-11-12T07:35:06.201Z,2269.44
2018-11-12T07:36:07.614Z,2580.48
2018-11-12T07:37:08.221Z,2684.16
2018-11-12T07:38:08.686Z,2707.20
2018-11-12T07:39:09.299Z,3018.24
2018-11-12T07:40:09.763Z,2972.16
2018-11-12T07:41:10.254Z,2557.44
2018-11-12T07:42:10.839Z,2453.76
2018-11-12T07:43:10.466Z,2568.96
2018-11-12T07:44:11.386Z,2661.12
2018-11-12T07:45:12.929Z,2661.12
2018-11-12T07:46:12.438Z,2626.56
2018-11-12T07:47:14.476Z,2465.28
2018-11-12T07:48:12.617Z,2419.20
2018-11-12T07:49:14.119Z,2695.68
2018-11-12T07:50:15.597Z,3064.32
2018-11-12T07:51:14.035Z,3202.56
2018-11-12T07:52:14.047Z,3110.40
2018-11-12T07:53:15.470Z,2787.84
2018-11-12T07:54:14.741Z,2764.80
2018-11-12T07:55:16.554Z,2891.52
2018-11-12T07:56:17.412Z,2972.16
2018-11-12T07:57:16.672Z,2995.20
2018-11-12T07:58:18.187Z,2672.64
2018-11-12T07:59:17.679Z,2419.20
2018-11-12T08:00:17.942Z,2223.36
2018-11-12T08:01:19.903Z,2338.56
2018-11-12T08:02:20.441Z,2753.28
2018-11-12T08:03:20.521Z,2926.08
2018-11-12T08:04:20.361Z,2903.04
2018-11-12T08:05:22.980Z,2396.16
2018-11-12T08:06:22.453Z,2211.84
2018-11-12T08:07:22.700Z,2304.00
2018-11-12T08:08:23.448Z,2488.32
2018-11-12T08:09:24.133Z,2707.20
2018-11-12T08:10:24.552Z,2833.92
2018-11-12T08:11:25.090Z,3202.56
2018-11-12T08:12:25.892Z,3594.24
2018-11-12T08:13:26.839Z,3847.68
2018-11-12T08:14:26.399Z,4262.40
2018-11-12T08:15:26.869Z,5322.24
2018-11-12T08:16:27.314Z,5552.64
2018-11-12T08:16:37.420Z,5552.64
2018-11-12T08:17:38.885Z,5345.28
2018-11-12T08:18:38.847Z,5414.40
2018-11-12T08:19:40.719Z,5944.32
2018-11-12T08:20:41.251Z,6359.04
2018-11-12T08:21:40.734Z,6220.80
2018-11-12T08:22:42.199Z,6082.56
2018-11-12T08:23:42.705Z,5898.24
2018-11-12T08:24:43.393Z,5368.32
2018-11-12T08:25:42.976Z,4608.00
2018-11-12T08:26:44.633Z,4032.00
2018-11-12T08:27:45.045Z,3340.80
2018-11-12T08:28:46.378Z,3087.36
2018-11-12T08:29:46.189Z,3409.92
2018-11-12T08:30:45.532Z,3893.76
2018-11-12T08:31:46.131Z,4446.72
2018-11-12T08:32:48.057Z,4930.56
2018-11-12T08:33:48.673Z,5045.76
2018-11-12T08:34:49.490Z,4930.56
2018-11-12T08:35:49.807Z,4999.68
2018-11-12T08:36:50.364Z,5552.64
2018-11-12T08:37:51.172Z,5506.56
2018-11-12T08:38:52.032Z,5068.80
2018-11-12T08:39:52.732Z,4838.40
2018-11-12T08:40:52.292Z,4815.36
2018-11-12T08:41:52.793Z,4584.96
2018-11-12T08:42:54.218Z,4469.76
2018-11-12T08:43:54.749Z,4377.60
2018-11-12T08:44:54.483Z,4561.92
2018-11-12T08:45:55.949Z,4423.68
2018-11-12T08:46:54.937Z,4216.32
2018-11-12T08:47:55.953Z,3916.80
2018-11-12T08:48:56.650Z,3847.68
2018-11-12T08:49:56.591Z,4239.36
2018-11-12T08:50:57.049Z,4515.84
2018-11-12T08:51:58.552Z,4492.80
2018-11-12T08:52:59.328Z,4515.84
2018-11-12T08:53:59.703Z,4423.68
2018-11-12T08:55:00.451Z,3939.84
2018-11-12T08:55:59.811Z,3847.68
2018-11-12T08:57:00.420Z,3686.40
2018-11-12T08:58:02.430Z,3571.20
2018-11-12T08:59:02.247Z,3755.52
2018-11-12T09:00:03.848Z,4124.16
2018-11-12T09:01:04.318Z,4331.52
2018-11-12T09:02:05.074Z,4515.84
2018-11-12T09:03:05.581Z,4861.44
2018-11-12T09:04:06.322Z,5022.72
2018-11-12T09:05:05.851Z,5230.08
2018-11-12T09:06:07.821Z,5483.52
2018-11-12T09:07:08.603Z,5621.76
2018-11-12T09:08:08.021Z,5230.08
2018-11-12T09:09:09.498Z,4492.80
2018-11-12T09:10:10.174Z,4008.96
2018-11-12T09:11:09.558Z,4032.00
2018-11-12T09:12:11.278Z,3594.24
2018-11-12T09:13:12.163Z,2661.12
2018-11-12T09:14:11.546Z,2108.16
2018-11-12T09:15:12.693Z,1739.52
2018-11-12T09:16:13.153Z,1658.88
2018-11-12T09:16:21.492Z,1647.36
2018-11-12T09:17:23.118Z,1411.20
2018-11-12T09:18:23.718Z,1463.04
2018-11-12T09:19:24.138Z,1820.16
2018-11-12T09:20:24.683Z,2188.80
2018-11-12T09:21:25.317Z,2085.12
2018-11-12T09:22:25.749Z,1969.92
2018-11-12T09:23:26.316Z,2315.52
2018-11-12T09:24:27.093Z,2856.96
2018-11-12T09:25:26.592Z,2972.16
2018-11-12T09:26:28.235Z,3202.56
2018-11-12T09:27:28.637Z,3294.72
2018-11-12T09:28:29.517Z,3709.44
2018-11-12T09:29:29.947Z,4285.44
2018-11-12T09:30:29.609Z,4700.16
2018-11-12T09:31:31.592Z,5391.36
2018-11-12T09:32:30.647Z,5621.76
2018-11-12T09:33:32.283Z,6082.56
2018-11-12T09:34:32.622Z,7096.32
2018-11-12T09:35:33.052Z,8017.92
2018-11-12T09:36:33.818Z,8432.64
2018-11-12T09:37:33.174Z,8202.24
2018-11-12T09:38:34.683Z,7557.12
2018-11-12T09:39:35.127Z,6865.92
2018-11-12T09:40:35.592Z,6589.44
2018-11-12T09:41:34.998Z,6681.60
2018-11-12T09:42:35.270Z,7050.24
2018-11-12T09:43:36.999Z,7418.88
2018-11-12T09:44:37.566Z,7649.28
2018-11-12T09:45:38.493Z,7603.20
2018-11-12T09:46:38.963Z,7557.12
2018-11-12T09:47:39.425Z,7741.44
2018-11-12T09:48:38.850Z,7464.96
2018-11-12T09:49:40.268Z,7464.96
2018-11-12T09:50:40.629Z,7879.68
2018-11-12T09:51:41.281Z,8248.32
2018-11-12T09:52:41.929Z,8478.72
2018-11-12T09:53:42.519Z,8386.56
2018-11-12T09:54:41.889Z,8202.24
2018-11-12T09:55:42.525Z,8017.92
2018-11-12T09:56:43.138Z,7787.52
2018-11-12T09:57:44.604Z,7695.36
2018-11-12T09:58:45.127Z,7879.68
2018-11-12T09:59:45.992Z,7649.28
2018-11-12T10:00:46.565Z,7511.04
2018-11-12T10:01:46.085Z,7971.84
2018-11-12T10:02:46.772Z,8386.56
2018-11-12T10:03:48.373Z,8801.28
2018-11-12T10:03:55.585Z,8801.28
2018-11-12T10:04:56.772Z,8709.12
2018-11-12T10:05:57.455Z,8432.64
2018-11-12T10:06:57.653Z,8755.20
2018-11-12T10:07:58.476Z,8340.48
2018-11-12T10:08:58.727Z,8017.92
2018-11-12T10:09:59.684Z,8248.32
2018-11-12T10:11:01.344Z,7557.12
2018-11-12T10:12:01.257Z,7234.56
2018-11-12T10:13:01.184Z,6958.08
2018-11-12T10:14:01.822Z,6773.76
2018-11-12T10:15:03.013Z,6405.12
2018-11-12T10:16:03.085Z,5852.16
2018-11-12T10:17:03.653Z,6036.48
2018-11-12T10:18:03.788Z,6082.56
2018-11-12T10:19:01.334Z,6958.08
2018-11-12T10:20:02.720Z,7787.52
2018-11-12T10:21:03.264Z,8432.64
2018-11-12T10:22:03.659Z,9077.76
2018-11-12T10:23:04.062Z,9077.76
2018-11-12T10:24:04.776Z,8570.88
2018-11-12T10:25:04.027Z,8432.64
2018-11-12T10:26:05.969Z,8663.04
2018-11-12T10:27:06.432Z,9123.84
2018-11-12T10:28:05.814Z,9031.68
2018-11-12T10:29:07.379Z,8478.72
2018-11-12T10:30:07.878Z,7971.84
2018-11-12T10:31:08.378Z,7695.36
2018-11-12T10:32:08.923Z,7511.04
2018-11-12T10:33:09.849Z,7557.12
2018-11-12T10:34:10.245Z,7787.52
2018-11-12T10:35:09.549Z,7695.36
2018-11-12T10:36:10.949Z,7234.56
2018-11-12T10:37:11.343Z,7372.80
2018-11-12T10:38:11.789Z,7649.28
2018-11-12T10:39:12.144Z,7787.52
2018-11-12T10:40:12.569Z,7741.44
2018-11-12T10:41:13.538Z,7649.28
2018-11-12T10:42:12.814Z,7603.20
2018-11-12T10:43:14.191Z,7649.28
2018-11-12T10:44:14.699Z,7787.52
2018-11-12T10:45:15.157Z,8248.32
2018-11-12T10:46:15.647Z,8939.52
2018-11-12T10:47:16.021Z,9492.48
2018-11-12T10:48:16.427Z,9861.12
2018-11-12T10:49:15.802Z,10229.76
2018-11-12T10:50:17.176Z,10690.56
2018-11-12T10:51:17.685Z,10690.56
2018-11-12T10:52:16.945Z,10091.52
2018-11-12T10:53:18.348Z,9308.16
2018-11-12T10:54:18.925Z,8570.88
2018-11-12T10:55:18.682Z,7787.52
2018-11-12T10:56:19.059Z,7372.80
2018-11-12T10:57:20.503Z,7603.20
2018-11-12T10:58:21.525Z,7418.88
2018-11-12T10:59:20.581Z,7234.56
2018-11-12T11:00:22.280Z,6958.08
2018-11-12T11:00:30.850Z,6912.00
2018-11-12T11:01:32.321Z,6865.92
2018-11-12T11:02:32.753Z,7234.56
2018-11-12T11:03:33.240Z,7234.56
2018-11-12T11:04:33.635Z,7280.64
2018-11-12T11:05:34.036Z,7096.32
2018-11-12T11:06:34.472Z,7050.24
2018-11-12T11:07:34.720Z,6912.00
2018-11-12T11:08:35.544Z,6819.84
2018-11-12T11:09:36.005Z,6865.92
2018-11-12T11:10:36.364Z,6727.68
2018-11-12T11:11:36.822Z,6727.68
2018-11-12T11:12:37.238Z,6865.92
2018-11-12T11:13:37.714Z,7096.32
2018-11-12T11:14:38.187Z,7464.96
2018-11-12T11:15:38.839Z,7603.20
2018-11-12T11:16:38.626Z,7557.12
2018-11-12T11:17:39.963Z,7649.28
2018-11-12T11:18:40.726Z,7557.12
2018-11-12T11:19:41.595Z,7418.88
2018-11-12T11:20:42.024Z,7511.04
2018-11-12T11:21:42.748Z,7833.60
2018-11-12T11:22:43.234Z,8202.24
2018-11-12T11:23:43.967Z,8110.08
2018-11-12T11:24:44.366Z,7833.60
2018-11-12T11:25:44.783Z,7511.04
2018-11-12T11:26:44.185Z,7188.48
2018-11-12T11:27:44.556Z,7004.16
2018-11-12T11:28:46.337Z,7096.32
2018-11-12T11:29:47.787Z,7372.80
2018-11-12T11:30:47.279Z,7511.04
2018-11-12T11:31:47.726Z,7603.20
2018-11-12T11:32:47.033Z,7557.12
2018-11-12T11:33:48.386Z,7372.80
2018-11-12T11:34:48.754Z,7511.04
2018-11-12T11:35:49.110Z,7603.20
2018-11-12T11:36:49.819Z,7695.36
2018-11-12T11:37:50.223Z,7925.76
2018-11-12T11:38:49.840Z,7879.68
2018-11-12T11:39:51.415Z,7649.28
2018-11-12T11:40:51.545Z,7879.68
2018-11-12T11:41:51.290Z,7741.44
2018-11-12T11:42:52.789Z,7418.88
2018-11-12T11:43:53.535Z,7096.32
2018-11-12T11:44:53.170Z,6819.84
2018-11-12T11:45:53.754Z,6451.20
2018-11-12T11:46:55.672Z,6174.72
2018-11-12T11:47:57.249Z,6451.20
2018-11-12T11:48:55.501Z,6912.00
2018-11-12T11:49:55.871Z,6865.92
2018-11-12T11:50:57.210Z,6543.36
2018-11-12T11:51:57.643Z,6405.12
2018-11-12T11:52:58.042Z,5944.32
2018-11-12T11:53:06.556Z,5898.24
2018-11-12T11:54:06.840Z,5644.80
2018-11-12T11:55:07.057Z,5276.16
2018-11-12T11:56:08.377Z,5114.88
2018-11-12T11:57:08.705Z,5068.80
2018-11-12T11:58:08.065Z,4953.60
2018-11-12T11:59:09.408Z,4723.20
2018-11-12T12:00:09.642Z,4930.56
2018-11-12T12:01:10.016Z,5068.80
2018-11-12T12:02:09.499Z,5230.08
2018-11-12T12:03:10.157Z,5460.48
2018-11-12T12:04:10.409Z,5575.68
2018-11-12T12:05:11.933Z,5898.24
2018-11-12T12:06:12.348Z,6082.56
2018-11-12T12:07:12.409Z,5806.08
2018-11-12T12:08:13.286Z,5783.04
2018-11-12T12:09:13.729Z,6082.56
2018-11-12T12:10:13.251Z,6359.04
2018-11-12T12:11:15.057Z,6589.44
2018-11-12T12:12:14.334Z,7050.24
2018-11-12T12:13:15.946Z,7833.60
2018-11-12T12:14:15.460Z,8110.08
2018-11-12T12:15:16.952Z,8202.24
2018-11-12T12:16:17.230Z,9953.28
2018-11-12T12:17:17.804Z,9953.28
2018-11-12T12:18:18.373Z,10598.40
2018-11-12T12:19:17.888Z,10552.32
2018-11-12T12:20:18.389Z,10506.24
2018-11-12T12:21:19.757Z,9907.20
2018-11-12T12:22:20.300Z,9630.72
2018-11-12T12:23:20.711Z,10091.52
2018-11-12T12:24:21.034Z,8110.08
2018-11-12T12:25:20.581Z,7879.68
2018-11-12T12:26:20.918Z,7833.60
2018-11-12T12:27:22.242Z,9123.84
2018-11-12T12:28:22.598Z,7326.72
2018-11-12T12:29:22.993Z,7326.72
2018-11-12T12:30:23.302Z,8156.16
2018-11-12T12:31:23.745Z,4953.60
2018-11-12T12:32:24.182Z,5598.72
2018-11-12T12:33:24.828Z,3456.00
2018-11-12T12:34:25.266Z,7004.16
2018-11-12T12:35:26.140Z,7649.28
2018-11-12T12:36:25.454Z,5230.08
2018-11-12T12:37:25.786Z,6174.72
2018-11-12T12:38:27.326Z,7004.16
2018-11-12T12:39:28.270Z,5022.72
2018-11-12T12:40:29.088Z,4999.68